createdAt,value
2023-05-10T00:01:20.838Z,15.71
2023-05-10T00:03:47.652Z,15.57
2023-05-10T00:06:14.447Z,15.45
2023-05-10T00:08:41.350Z,15.48
2023-05-10T00:11:08.237Z,15.55
2023-05-10T00:13:34.900Z,15.47
2023-05-10T00:16:01.668Z,15.39
2023-05-10T00:18:28.447Z,15.43
2023-05-10T00:20:55.090Z,15.45
2023-05-10T00:23:21.764Z,15.43
2023-05-10T00:25:48.585Z,15.44
2023-05-10T00:28:15.258Z,15.31
2023-05-10T00:30:42.078Z,15.37
2023-05-10T00:33:08.978Z,15.45
2023-05-10T00:35:35.672Z,15.38
2023-05-10T00:38:02.374Z,15.42
2023-05-10T00:40:29.745Z,15.52
2023-05-10T00:43:01.428Z,15.50
2023-05-10T00:45:28.370Z,15.34
2023-05-10T00:47:56.208Z,15.38
2023-05-10T00:50:24.322Z,15.35
2023-05-10T00:52:51.337Z,15.36
2023-05-10T00:55:19.060Z,15.41
2023-05-10T00:57:45.860Z,15.43
2023-05-10T01:00:14.016Z,15.45
2023-05-10T01:02:41.516Z,15.49
2023-05-10T01:05:08.459Z,15.47
2023-05-10T01:07:35.208Z,15.42
2023-05-10T01:10:02.175Z,15.44
2023-05-10T01:12:31.220Z,15.34
2023-05-10T01:14:58.896Z,15.34
2023-05-10T01:17:26.566Z,15.28
2023-05-10T01:19:53.420Z,15.31
2023-05-10T01:22:41.915Z,15.30
2023-05-10T01:25:39.477Z,15.28
2023-05-10T01:28:28.029Z,15.30
2023-05-10T01:31:19.776Z,15.17
2023-05-10T01:33:59.940Z,15.17
2023-05-10T01:36:48.847Z,15.13
2023-05-10T01:39:41.312Z,15.15
2023-05-10T01:42:14.037Z,15.13
2023-05-10T01:45:01.144Z,15.04
2023-05-10T01:47:39.595Z,14.99
2023-05-10T01:50:16.143Z,15.12
2023-05-10T01:52:49.078Z,15.12
2023-05-10T01:55:17.886Z,15.08
2023-05-10T01:57:47.349Z,15.03
2023-05-10T02:00:15.901Z,15.02
2023-05-10T02:02:48.249Z,14.97
2023-05-10T02:05:17.042Z,14.95
2023-05-10T02:07:44.694Z,14.97
2023-05-10T02:10:14.011Z,15.00
2023-05-10T02:12:47.212Z,14.99
2023-05-10T02:15:20.181Z,15.00
2023-05-10T02:17:48.196Z,14.99
2023-05-10T02:20:18.136Z,14.93
2023-05-10T02:22:47.011Z,14.92
2023-05-10T02:25:16.580Z,14.93
2023-05-10T02:27:45.585Z,14.93
2023-05-10T02:30:12.978Z,14.92
2023-05-10T02:32:40.582Z,14.92
2023-05-10T02:35:09.365Z,14.92
2023-05-10T02:37:38.372Z,14.88
2023-05-10T02:40:07.257Z,14.89
2023-05-10T02:42:37.797Z,14.89
2023-05-10T02:45:13.022Z,14.87
2023-05-10T02:47:40.320Z,14.85
2023-05-10T02:50:07.896Z,14.79
2023-05-10T02:52:41.105Z,14.67
2023-05-10T02:55:10.802Z,14.84
2023-05-10T02:57:42.266Z,14.81
2023-05-10T03:00:09.792Z,14.85
2023-05-10T03:02:37.318Z,14.85
2023-05-10T03:05:04.559Z,14.87
2023-05-10T03:07:31.570Z,14.84
2023-05-10T03:09:59.588Z,14.84
2023-05-10T03:12:32.556Z,14.84
2023-05-10T03:15:34.551Z,14.74
2023-05-10T03:18:14.879Z,14.70
2023-05-10T03:20:49.409Z,14.69
2023-05-10T03:23:18.998Z,14.72
2023-05-10T03:25:48.859Z,14.76
2023-05-10T03:28:17.575Z,14.79
2023-05-10T03:30:45.507Z,14.73
2023-05-10T03:33:14.166Z,14.76
2023-05-10T03:35:46.551Z,14.74
2023-05-10T03:38:14.202Z,14.77
2023-05-10T03:40:40.931Z,14.75
2023-05-10T03:43:08.884Z,14.69
2023-05-10T03:45:35.699Z,14.77
2023-05-10T03:48:02.471Z,14.80
2023-05-10T03:50:29.628Z,14.76
2023-05-10T03:52:56.560Z,14.77
2023-05-10T03:55:23.496Z,14.76
2023-05-10T03:57:54.710Z,14.78
2023-05-10T04:00:22.732Z,14.76
2023-05-10T04:02:53.044Z,14.68
2023-05-10T04:05:20.705Z,14.85
2023-05-10T04:07:48.122Z,14.80
2023-05-10T04:10:15.095Z,14.75
2023-05-10T04:12:42.001Z,14.72
2023-05-10T04:15:09.219Z,14.64
2023-05-10T04:17:35.956Z,14.70
2023-05-10T04:20:02.852Z,14.69
2023-05-10T04:22:30.792Z,14.67
2023-05-10T04:24:57.415Z,14.66
2023-05-10T04:27:24.168Z,14.57
2023-05-10T04:29:51.660Z,14.48
2023-05-10T04:32:18.410Z,14.47
2023-05-10T04:34:45.108Z,14.60
2023-05-10T04:37:11.864Z,14.58
2023-05-10T04:39:40.232Z,14.46
2023-05-10T04:42:08.219Z,14.54
2023-05-10T04:44:35.039Z,14.65
2023-05-10T04:47:03.209Z,14.39
2023-05-10T04:49:30.987Z,14.74
2023-05-10T04:51:57.646Z,14.75
2023-05-10T04:54:24.480Z,14.86
2023-05-10T04:56:51.207Z,14.68
2023-05-10T04:59:18.154Z,14.66
2023-05-10T05:01:44.860Z,14.68
2023-05-10T05:04:11.861Z,14.63
2023-05-10T05:06:38.640Z,14.52
2023-05-10T05:09:05.310Z,14.68
2023-05-10T05:11:31.984Z,14.76
2023-05-10T05:14:00.145Z,14.62
2023-05-10T05:16:27.436Z,14.51
2023-05-10T05:18:54.266Z,14.59
2023-05-10T05:21:21.234Z,14.62
2023-05-10T05:23:48.354Z,14.70
2023-05-10T05:26:15.871Z,14.66
2023-05-10T05:28:43.111Z,14.70
2023-05-10T05:31:10.178Z,14.77
2023-05-10T05:33:37.743Z,15.06
2023-05-10T05:36:06.332Z,15.01
2023-05-10T05:38:33.162Z,15.05
2023-05-10T05:40:59.972Z,14.85
2023-05-10T05:43:26.710Z,14.98
2023-05-10T05:45:54.795Z,15.07
2023-05-10T05:48:21.846Z,15.17
2023-05-10T05:50:48.502Z,15.00
2023-05-10T05:53:15.355Z,15.04
2023-05-10T05:55:51.404Z,14.98
2023-05-10T05:58:18.156Z,15.13
2023-05-10T06:00:44.791Z,15.12
2023-05-10T06:03:11.646Z,15.11
2023-05-10T06:05:38.544Z,14.98
2023-05-10T06:08:05.274Z,15.11
2023-05-10T06:10:31.955Z,15.21
2023-05-10T06:12:58.651Z,14.96
2023-05-10T06:15:25.601Z,15.00
2023-05-10T06:17:52.485Z,15.10
2023-05-10T06:20:19.485Z,15.33
2023-05-10T06:22:46.170Z,15.31
2023-05-10T06:25:12.988Z,15.34
2023-05-10T06:27:39.600Z,15.38
2023-05-10T06:30:13.014Z,15.44
2023-05-10T06:32:40.692Z,15.60
2023-05-10T06:35:08.762Z,15.61
2023-05-10T06:37:35.569Z,15.54
2023-05-10T06:40:03.270Z,15.67
2023-05-10T06:42:31.719Z,15.70
2023-05-10T06:44:58.404Z,15.78
2023-05-10T06:47:25.249Z,15.63
2023-05-10T06:49:52.141Z,15.59
2023-05-10T06:52:18.949Z,15.56
2023-05-10T06:54:45.598Z,15.70
2023-05-10T06:57:23.415Z,15.63
2023-05-10T06:59:58.334Z,15.74
2023-05-10T07:02:25.054Z,15.81
2023-05-10T07:04:52.918Z,15.76
2023-05-10T07:07:20.047Z,15.91
2023-05-10T07:09:46.852Z,16.02
2023-05-10T07:12:15.337Z,15.91
2023-05-10T07:14:43.071Z,15.71
2023-05-10T07:17:10.363Z,15.56
2023-05-10T07:19:37.188Z,15.70
2023-05-10T07:22:04.061Z,15.70
2023-05-10T07:24:32.118Z,15.80
2023-05-10T07:26:58.787Z,15.89
2023-05-10T07:29:25.888Z,15.94
2023-05-10T07:31:52.740Z,16.07
2023-05-10T07:34:19.650Z,16.09
2023-05-10T07:36:46.348Z,16.04
2023-05-10T07:39:16.467Z,16.18
2023-05-10T07:41:51.919Z,16.31
2023-05-10T07:44:21.528Z,16.21
2023-05-10T07:46:48.965Z,16.26
2023-05-10T07:49:15.875Z,16.00
2023-05-10T07:51:43.407Z,16.00
2023-05-10T07:54:10.539Z,15.99
2023-05-10T07:56:37.299Z,15.95
2023-05-10T07:59:08.799Z,16.08
2023-05-10T08:01:36.712Z,16.21
2023-05-10T08:04:03.584Z,16.26
2023-05-10T08:06:31.194Z,16.30
2023-05-10T08:08:58.560Z,16.47
2023-05-10T08:11:25.664Z,16.46
2023-05-10T08:13:52.642Z,16.64
2023-05-10T08:16:19.530Z,16.69
2023-05-10T08:18:47.989Z,16.49
2023-05-10T08:21:15.337Z,16.65
2023-05-10T08:23:42.067Z,16.88
2023-05-10T08:26:08.731Z,16.92
2023-05-10T08:28:35.542Z,16.92
2023-05-10T08:31:02.362Z,16.86
2023-05-10T08:33:29.315Z,16.82
2023-05-10T08:35:55.960Z,16.75
2023-05-10T08:38:22.747Z,16.77
2023-05-10T08:40:51.739Z,16.68
2023-05-10T08:43:19.130Z,16.41
2023-05-10T08:45:48.800Z,16.20
2023-05-10T08:48:16.445Z,16.02
2023-05-10T08:50:44.049Z,16.03
2023-05-10T08:53:12.598Z,16.18
2023-05-10T08:55:41.049Z,16.09
2023-05-10T08:58:07.795Z,16.13
2023-05-10T09:00:35.211Z,16.23
2023-05-10T09:03:03.775Z,16.21
2023-05-10T09:05:30.728Z,16.19
2023-05-10T09:07:57.510Z,16.25
2023-05-10T09:10:27.029Z,16.31
2023-05-10T09:12:54.585Z,16.22
2023-05-10T09:15:21.449Z,16.21
2023-05-10T09:17:50.133Z,16.39
2023-05-10T09:20:18.379Z,16.52
2023-05-10T09:22:45.086Z,16.57
2023-05-10T09:25:16.171Z,16.58
2023-05-10T09:27:46.930Z,16.86
2023-05-10T09:30:29.570Z,16.87
2023-05-10T09:32:57.942Z,16.89
2023-05-10T09:35:29.446Z,16.96
2023-05-10T09:37:58.818Z,17.01
2023-05-10T09:40:27.226Z,16.85
2023-05-10T09:43:02.428Z,16.72
2023-05-10T09:45:31.456Z,16.56
2023-05-10T09:48:01.521Z,16.33
2023-05-10T09:50:29.017Z,16.17
2023-05-10T09:53:01.626Z,16.04
2023-05-10T09:55:46.134Z,15.99
2023-05-10T09:58:14.509Z,16.14
2023-05-10T10:00:42.944Z,16.25
2023-05-10T10:03:21.197Z,16.36
2023-05-10T10:05:49.592Z,16.30
2023-05-10T10:08:17.664Z,16.46
2023-05-10T10:10:47.393Z,16.58
2023-05-10T10:13:14.854Z,16.56
2023-05-10T10:15:43.384Z,16.63
2023-05-10T10:18:15.113Z,16.72
2023-05-10T10:20:42.583Z,16.70
2023-05-10T10:23:09.541Z,16.72
2023-05-10T10:25:36.589Z,16.80
2023-05-10T10:28:17.247Z,16.83
2023-05-10T10:30:47.947Z,17.05
2023-05-10T10:33:30.556Z,16.96
2023-05-10T10:36:00.930Z,17.03
2023-05-10T10:39:00.334Z,17.19
2023-05-10T10:41:53.493Z,17.21
2023-05-10T10:44:23.570Z,17.15
2023-05-10T10:47:12.849Z,17.12
2023-05-10T10:49:46.974Z,17.38
2023-05-10T10:52:16.236Z,17.51
2023-05-10T10:54:50.972Z,17.47
2023-05-10T10:57:22.508Z,17.67
2023-05-10T10:59:49.524Z,17.81
2023-05-10T11:02:44.773Z,17.69
2023-05-10T11:05:34.353Z,17.90
2023-05-10T11:08:08.386Z,17.87
2023-05-10T11:10:35.344Z,17.80
2023-05-10T11:13:06.955Z,17.75
2023-05-10T11:15:38.037Z,17.52
2023-05-10T11:18:24.980Z,17.65
2023-05-10T11:20:59.874Z,17.81
2023-05-10T11:23:58.765Z,17.76
2023-05-10T11:26:27.190Z,17.93
2023-05-10T11:28:59.443Z,17.90
2023-05-10T11:31:27.905Z,17.87
2023-05-10T11:33:57.228Z,17.85
2023-05-10T11:36:33.510Z,17.93
2023-05-10T11:39:00.407Z,17.96
2023-05-10T11:41:29.522Z,18.18
2023-05-10T11:43:58.315Z,18.23
2023-05-10T11:46:27.694Z,18.26
2023-05-10T11:49:02.375Z,18.09
2023-05-10T11:51:29.154Z,18.25
2023-05-10T11:53:57.168Z,18.44
2023-05-10T11:56:24.521Z,18.29
2023-05-10T11:58:56.698Z,18.27
2023-05-10T12:01:27.530Z,18.33
2023-05-10T12:03:59.086Z,18.18
2023-05-10T12:06:32.149Z,18.15
2023-05-10T12:08:59.777Z,18.17
2023-05-10T12:11:28.424Z,17.95
2023-05-10T12:13:57.168Z,17.79
2023-05-10T12:16:27.023Z,17.94
2023-05-10T12:18:56.869Z,17.92
2023-05-10T12:21:24.178Z,18.04
2023-05-10T12:23:52.099Z,17.92
2023-05-10T12:26:22.464Z,18.01
2023-05-10T12:28:49.109Z,17.94
2023-05-10T12:31:15.979Z,17.94
2023-05-10T12:33:44.668Z,17.83
2023-05-10T12:36:12.959Z,18.14
2023-05-10T12:38:48.589Z,18.22
2023-05-10T12:41:19.533Z,18.06
2023-05-10T12:43:49.253Z,18.18
2023-05-10T12:46:18.182Z,18.03
2023-05-10T12:48:47.131Z,18.16
2023-05-10T12:51:16.538Z,18.31
2023-05-10T12:53:46.149Z,18.25
2023-05-10T12:56:14.236Z,18.02
2023-05-10T12:58:41.244Z,17.96
2023-05-10T13:01:08.079Z,18.12
2023-05-10T13:03:34.786Z,18.29
2023-05-10T13:06:01.606Z,18.25
2023-05-10T13:08:30.629Z,18.19
2023-05-10T13:10:57.636Z,18.26
2023-05-10T13:13:24.368Z,18.51
2023-05-10T13:15:51.219Z,18.44
2023-05-10T13:18:18.019Z,18.68
2023-05-10T13:20:45.279Z,18.49
2023-05-10T13:23:12.187Z,18.70
2023-05-10T13:25:39.251Z,18.40
2023-05-10T13:28:06.050Z,18.51
2023-05-10T13:30:32.808Z,18.51
2023-05-10T13:32:59.637Z,18.79
2023-05-10T13:35:26.354Z,18.63
2023-05-10T13:37:54.330Z,18.62
2023-05-10T13:40:21.034Z,18.36
2023-05-10T13:42:47.700Z,18.52
2023-05-10T13:45:14.741Z,18.69
2023-05-10T13:47:41.949Z,18.64
2023-05-10T13:50:09.014Z,18.68
2023-05-10T13:52:36.132Z,18.74
2023-05-10T13:55:03.740Z,18.87
2023-05-10T13:57:31.673Z,18.56
2023-05-10T13:59:59.344Z,18.83
2023-05-10T14:02:26.802Z,18.80
2023-05-10T14:04:53.647Z,18.76
2023-05-10T14:07:20.307Z,18.84
2023-05-10T14:09:47.019Z,19.01
2023-05-10T14:12:15.429Z,18.88
2023-05-10T14:14:42.225Z,18.88
2023-05-10T14:17:10.735Z,19.11
2023-05-10T14:19:39.691Z,19.36
2023-05-10T14:22:06.592Z,19.14
2023-05-10T14:24:33.478Z,19.21
2023-05-10T14:27:01.114Z,19.19
2023-05-10T14:29:28.228Z,19.12
2023-05-10T14:31:54.957Z,19.34
2023-05-10T14:34:21.879Z,19.20
2023-05-10T14:36:48.703Z,19.19
2023-05-10T14:39:15.523Z,19.37
2023-05-10T14:41:43.873Z,19.39
2023-05-10T14:44:11.620Z,19.68
2023-05-10T14:46:39.068Z,20.04
2023-05-10T14:49:05.959Z,20.21
2023-05-10T14:51:32.692Z,20.34
2023-05-10T14:53:59.802Z,20.73
2023-05-10T14:56:29.492Z,20.76
2023-05-10T14:58:56.438Z,20.33
2023-05-10T15:01:23.686Z,20.02
2023-05-10T15:03:51.582Z,20.09
2023-05-10T15:06:24.667Z,20.15
2023-05-10T15:08:53.544Z,20.43
2023-05-10T15:11:21.384Z,20.74
2023-05-10T15:13:48.176Z,20.44
2023-05-10T15:16:14.929Z,21.06
2023-05-10T15:18:41.685Z,21.37
2023-05-10T15:21:08.346Z,21.02
2023-05-10T15:23:34.996Z,21.03
2023-05-10T15:26:01.978Z,20.76
2023-05-10T15:28:28.582Z,20.39
2023-05-10T15:30:56.279Z,20.48
2023-05-10T15:33:23.742Z,19.94
2023-05-10T15:35:50.395Z,20.16
2023-05-10T15:38:17.193Z,20.13
2023-05-10T15:40:43.808Z,20.34
2023-05-10T15:43:10.442Z,20.26
2023-05-10T15:45:37.705Z,20.19
2023-05-10T15:48:05.027Z,20.26
2023-05-10T15:50:31.835Z,20.46
2023-05-10T15:52:58.520Z,20.23
2023-05-10T15:55:25.876Z,20.01
2023-05-10T15:57:52.809Z,19.94
2023-05-10T16:00:19.692Z,20.06
2023-05-10T16:02:46.378Z,20.08
2023-05-10T16:05:13.946Z,20.11
2023-05-10T16:07:41.940Z,19.76
2023-05-10T16:10:11.053Z,19.68
2023-05-10T16:12:38.568Z,19.75
2023-05-10T16:15:06.303Z,19.61
2023-05-10T16:17:33.130Z,19.50
2023-05-10T16:20:01.177Z,19.72
2023-05-10T16:22:30.657Z,19.68
2023-05-10T16:24:58.158Z,19.67
2023-05-10T16:27:25.236Z,19.35
2023-05-10T16:29:51.877Z,19.32
2023-05-10T16:32:18.654Z,19.36
2023-05-10T16:34:45.524Z,19.38
2023-05-10T16:37:12.240Z,19.38
2023-05-10T16:39:38.894Z,19.46
2023-05-10T16:42:05.685Z,19.51
2023-05-10T16:44:32.625Z,19.56
2023-05-10T16:46:59.364Z,19.41
2023-05-10T16:49:26.616Z,19.48
2023-05-10T16:51:53.423Z,19.44
2023-05-10T16:54:21.815Z,19.26
2023-05-10T16:56:48.478Z,19.34
2023-05-10T16:59:16.243Z,19.39
2023-05-10T17:01:43.139Z,19.41
2023-05-10T17:04:09.849Z,19.41
2023-05-10T17:06:37.406Z,19.35
2023-05-10T17:09:05.593Z,19.41
2023-05-10T17:11:32.645Z,19.40
2023-05-10T17:14:01.367Z,19.28
2023-05-10T17:16:29.698Z,19.27
2023-05-10T17:18:56.673Z,19.27
2023-05-10T17:21:23.399Z,19.24
2023-05-10T17:23:50.277Z,19.36
2023-05-10T17:26:17.259Z,19.25
2023-05-10T17:28:43.943Z,19.25
2023-05-10T17:31:10.663Z,19.18
2023-05-10T17:33:37.552Z,19.20
2023-05-10T17:36:04.447Z,19.15
2023-05-10T17:38:31.147Z,18.95
2023-05-10T17:40:57.880Z,18.87
2023-05-10T17:43:25.987Z,18.74
2023-05-10T17:45:52.925Z,18.75
2023-05-10T17:48:19.755Z,18.67
2023-05-10T17:50:46.470Z,18.76
2023-05-10T17:53:13.113Z,18.73
2023-05-10T17:55:41.175Z,18.65
2023-05-10T17:58:09.568Z,18.75
2023-05-10T18:00:36.444Z,18.45
2023-05-10T18:03:04.562Z,18.55
2023-05-10T18:05:31.664Z,18.58
2023-05-10T18:07:58.347Z,18.51
2023-05-10T18:10:25.048Z,18.48
2023-05-10T18:12:52.496Z,18.54
2023-05-10T18:15:19.327Z,18.54
2023-05-10T18:17:46.110Z,18.40
2023-05-10T18:20:14.245Z,18.35
2023-05-10T18:22:40.986Z,18.33
2023-05-10T18:25:08.099Z,18.22
2023-05-10T18:27:34.878Z,18.26
2023-05-10T18:30:01.771Z,18.31
2023-05-10T18:32:32.761Z,18.24
2023-05-10T18:34:59.478Z,18.19
2023-05-10T18:37:26.261Z,18.20
2023-05-10T18:39:53.086Z,18.02
2023-05-10T18:42:22.970Z,17.94
2023-05-10T18:44:49.702Z,17.89
2023-05-10T18:47:16.500Z,17.89
2023-05-10T18:49:45.130Z,17.70
2023-05-10T18:52:12.603Z,17.82
2023-05-10T18:54:39.240Z,17.84
2023-05-10T18:57:06.061Z,17.80
2023-05-10T18:59:33.594Z,17.89
2023-05-10T19:02:00.303Z,17.61
2023-05-10T19:04:27.531Z,17.76
2023-05-10T19:06:55.654Z,17.66
2023-05-10T19:09:22.873Z,17.64
2023-05-10T19:11:51.135Z,17.56
2023-05-10T19:14:17.817Z,17.51
2023-05-10T19:16:44.663Z,17.48
2023-05-10T19:19:12.542Z,17.47
2023-05-10T19:21:40.909Z,17.38
2023-05-10T19:24:07.854Z,17.29
2023-05-10T19:26:36.268Z,17.26
2023-05-10T19:29:04.131Z,17.30
2023-05-10T19:31:31.132Z,17.32
2023-05-10T19:34:00.914Z,17.29
2023-05-10T19:36:28.126Z,17.18
2023-05-10T19:38:54.776Z,17.04
2023-05-10T19:41:22.251Z,16.87
2023-05-10T19:43:49.046Z,16.82
2023-05-10T19:46:17.206Z,16.87
2023-05-10T19:48:45.415Z,16.86
2023-05-10T19:51:13.989Z,16.86
2023-05-10T19:53:44.635Z,16.79
2023-05-10T19:56:11.452Z,16.69
2023-05-10T19:58:38.342Z,16.70
2023-05-10T20:01:07.466Z,16.80
2023-05-10T20:03:35.339Z,16.82
2023-05-10T20:06:02.725Z,16.82
2023-05-10T20:08:29.855Z,16.90
2023-05-10T20:11:02.326Z,16.93
2023-05-10T20:13:29.822Z,16.85
2023-05-10T20:15:58.049Z,16.58
2023-05-10T20:18:25.686Z,16.57
2023-05-10T20:20:58.333Z,16.42
2023-05-10T20:23:25.650Z,16.48
2023-05-10T20:25:52.744Z,16.38
2023-05-10T20:28:22.648Z,16.36
2023-05-10T20:30:53.143Z,16.44
2023-05-10T20:33:20.747Z,16.48
2023-05-10T20:35:47.597Z,16.44
2023-05-10T20:38:14.314Z,16.39
2023-05-10T20:40:41.525Z,16.35
2023-05-10T20:43:08.229Z,16.27
2023-05-10T20:45:37.556Z,16.27
2023-05-10T20:48:04.967Z,16.30
2023-05-10T20:50:31.613Z,16.15
2023-05-10T20:52:58.397Z,16.17
2023-05-10T20:55:25.191Z,16.24
2023-05-10T20:57:52.780Z,16.16
2023-05-10T21:00:20.114Z,16.00
2023-05-10T21:02:47.333Z,15.96
2023-05-10T21:05:14.348Z,16.00
2023-05-10T21:07:41.027Z,15.99
2023-05-10T21:10:08.422Z,15.77
2023-05-10T21:12:35.290Z,15.93
2023-05-10T21:15:04.349Z,15.95
2023-05-10T21:17:32.155Z,15.98
2023-05-10T21:19:58.841Z,15.88
2023-05-10T21:22:26.139Z,15.91
2023-05-10T21:24:52.830Z,15.94
2023-05-10T21:27:19.728Z,15.90
2023-05-10T21:29:46.523Z,15.88
2023-05-10T21:32:13.302Z,15.92
2023-05-10T21:34:39.992Z,15.90
2023-05-10T21:37:06.703Z,15.90
2023-05-10T21:39:33.377Z,15.88
2023-05-10T21:42:00.314Z,15.96
2023-05-10T21:44:27.078Z,15.94
2023-05-10T21:46:53.714Z,15.93
2023-05-10T21:49:20.403Z,15.77
2023-05-10T21:51:47.293Z,15.74
2023-05-10T21:54:14.055Z,15.74
2023-05-10T21:56:40.705Z,15.68
2023-05-10T21:59:07.418Z,15.80
2023-05-10T22:01:34.215Z,15.75
2023-05-10T22:04:00.870Z,15.83
2023-05-10T22:06:27.640Z,15.71
2023-05-10T22:08:54.394Z,15.73
2023-05-10T22:11:21.755Z,15.66
2023-05-10T22:13:48.410Z,15.73
2023-05-10T22:16:15.424Z,15.49
2023-05-10T22:18:43.622Z,15.61
2023-05-10T22:21:10.521Z,15.57
2023-05-10T22:23:37.255Z,15.46
2023-05-10T22:26:04.424Z,15.52
2023-05-10T22:28:31.159Z,15.85
2023-05-10T22:30:57.811Z,15.65
2023-05-10T22:33:24.749Z,15.90
2023-05-10T22:35:51.480Z,15.64
2023-05-10T22:38:18.132Z,15.52
2023-05-10T22:40:44.851Z,15.77
2023-05-10T22:43:11.869Z,15.59
2023-05-10T22:45:38.607Z,15.61
2023-05-10T22:48:05.482Z,15.69
2023-05-10T22:50:32.161Z,15.84
2023-05-10T22:52:58.940Z,15.75
2023-05-10T22:55:25.665Z,15.64
2023-05-10T22:57:53.826Z,15.51
2023-05-10T23:00:20.890Z,15.58
2023-05-10T23:02:47.776Z,15.55
2023-05-10T23:05:14.550Z,15.56
2023-05-10T23:07:41.318Z,15.50
2023-05-10T23:10:08.341Z,15.43
2023-05-10T23:12:34.948Z,15.34
2023-05-10T23:15:01.628Z,15.32
2023-05-10T23:17:29.180Z,15.50
2023-05-10T23:19:55.974Z,15.44
2023-05-10T23:22:22.666Z,15.42
2023-05-10T23:24:49.310Z,15.48
2023-05-10T23:27:16.062Z,15.38
2023-05-10T23:29:42.776Z,15.25
2023-05-10T23:32:09.588Z,15.25
2023-05-10T23:34:36.383Z,15.44
2023-05-10T23:37:03.018Z,15.38
2023-05-10T23:39:29.694Z,15.25
2023-05-10T23:41:56.441Z,15.10
2023-05-10T23:44:23.500Z,15.33
2023-05-10T23:46:50.570Z,15.17
2023-05-10T23:49:17.406Z,15.07
2023-05-10T23:51:44.207Z,15.12
2023-05-10T23:54:11.021Z,15.04
2023-05-10T23:56:37.768Z,15.13
2023-05-10T23:59:05.993Z,15.12
